createdAt,value
2018-07-27T00:01:30.458Z,12.53
2018-07-27T00:03:59.138Z,12.17
2018-07-27T00:06:27.769Z,11.77
2018-07-27T00:08:56.661Z,13.63
2018-07-27T00:11:25.260Z,13.77
2018-07-27T00:13:53.863Z,12.70
2018-07-27T00:16:22.629Z,12.67
2018-07-27T00:18:52.835Z,14.03
2018-07-27T00:21:21.678Z,14.43
2018-07-27T00:23:50.660Z,14.10
2018-07-27T00:26:19.429Z,13.93
2018-07-27T00:28:48.149Z,14.77
2018-07-27T00:31:16.909Z,14.50
2018-07-27T00:33:45.632Z,14.67
2018-07-27T00:36:14.205Z,15.10
2018-07-27T00:38:42.863Z,15.53
2018-07-27T00:41:11.585Z,15.63
2018-07-27T00:43:40.237Z,16.67
2018-07-27T00:46:08.843Z,16.93
2018-07-27T00:48:38.623Z,16.90
2018-07-27T00:51:07.198Z,17.73
2018-07-27T00:53:36.000Z,17.53
2018-07-27T00:56:04.717Z,18.63
2018-07-27T00:58:33.605Z,18.00
2018-07-27T01:01:02.403Z,17.53
2018-07-27T01:03:31.765Z,17.80
2018-07-27T01:06:00.625Z,18.30
2018-07-27T01:08:29.361Z,19.10
2018-07-27T01:10:57.985Z,19.23
2018-07-27T01:13:26.614Z,18.73
2018-07-27T01:15:55.420Z,19.63
2018-07-27T01:18:24.023Z,19.37
2018-07-27T01:20:52.582Z,19.13
2018-07-27T01:23:21.988Z,17.63
2018-07-27T01:25:50.672Z,19.00
2018-07-27T01:31:18.677Z,19.50
2018-07-27T01:33:48.270Z,19.97
2018-07-27T01:36:16.702Z,21.10
2018-07-27T01:38:45.336Z,21.03
2018-07-27T01:41:14.542Z,20.47
2018-07-27T01:43:43.109Z,19.13
2018-07-27T01:46:11.768Z,20.23
2018-07-27T01:48:40.409Z,18.97
2018-07-27T01:51:09.040Z,19.03
2018-07-27T01:53:37.586Z,18.50
2018-07-27T01:56:06.240Z,16.90
2018-07-27T01:58:35.001Z,18.20
2018-07-27T02:01:03.663Z,17.87
2018-07-27T02:03:32.267Z,17.07
2018-07-27T02:06:01.026Z,17.87
2018-07-27T02:08:29.553Z,17.20
2018-07-27T02:10:57.809Z,16.80
2018-07-27T02:13:26.414Z,17.20
2018-07-27T02:15:55.222Z,16.20
2018-07-27T02:18:23.851Z,16.50
2018-07-27T02:20:54.373Z,15.77
2018-07-27T02:23:23.012Z,15.03
2018-07-27T02:25:51.619Z,15.57
2018-07-27T02:28:20.285Z,15.23
2018-07-27T02:30:48.886Z,16.60
2018-07-27T02:33:17.487Z,16.47
2018-07-27T02:35:46.075Z,16.07
2018-07-27T02:38:14.922Z,15.33
2018-07-27T02:40:43.628Z,15.73
2018-07-27T02:43:12.532Z,15.47
2018-07-27T02:45:41.290Z,15.33
2018-07-27T02:48:09.943Z,15.50
2018-07-27T02:50:38.563Z,13.23
2018-07-27T02:53:07.241Z,14.73
2018-07-27T02:55:35.878Z,15.67
2018-07-27T02:58:04.545Z,15.53
2018-07-27T03:00:33.178Z,15.37
2018-07-27T03:03:01.801Z,15.80
2018-07-27T03:05:30.443Z,16.47
2018-07-27T03:07:59.021Z,16.70
2018-07-27T03:10:27.704Z,17.03
2018-07-27T03:12:56.312Z,16.50
2018-07-27T03:15:25.327Z,14.67
2018-07-27T03:17:53.952Z,16.07
2018-07-27T03:20:22.272Z,14.60
2018-07-27T03:22:51.513Z,16.67
2018-07-27T03:25:20.194Z,17.07
2018-07-27T03:27:48.780Z,13.87
2018-07-27T03:30:17.374Z,15.43
2018-07-27T03:32:45.580Z,17.33
2018-07-27T03:35:14.202Z,16.57
2018-07-27T03:37:42.898Z,17.27
2018-07-27T03:40:11.537Z,13.47
2018-07-27T03:42:40.093Z,12.10
2018-07-27T03:45:08.711Z,15.97
2018-07-27T03:47:37.393Z,17.53
2018-07-27T03:50:06.236Z,18.00
2018-07-27T03:52:34.695Z,16.60
2018-07-27T03:55:03.346Z,16.40
2018-07-27T03:57:32.314Z,17.10
2018-07-27T04:00:00.898Z,17.03
2018-07-27T04:02:29.524Z,16.43
2018-07-27T04:04:58.114Z,18.03
2018-07-27T04:07:26.764Z,18.23
2018-07-27T04:09:55.757Z,18.00
2018-07-27T04:12:24.950Z,19.40
2018-07-27T04:14:54.694Z,18.87
2018-07-27T04:17:23.252Z,19.20
2018-07-27T04:19:53.278Z,20.40
2018-07-27T04:22:22.961Z,20.70
2018-07-27T04:24:53.190Z,19.50
2018-07-27T04:27:21.768Z,20.13
2018-07-27T04:29:50.429Z,19.43
2018-07-27T04:32:19.092Z,20.47
2018-07-27T04:34:47.649Z,21.37
2018-07-27T04:37:16.250Z,19.83
2018-07-27T04:39:44.803Z,18.97
2018-07-27T04:42:13.421Z,19.83
2018-07-27T04:44:42.019Z,19.13
2018-07-27T04:47:10.663Z,19.00
2018-07-27T04:49:39.233Z,19.03
2018-07-27T04:52:08.097Z,18.50
2018-07-27T04:54:36.738Z,18.70
2018-07-27T04:57:05.673Z,18.33
2018-07-27T04:59:34.319Z,17.30
2018-07-27T05:02:03.001Z,17.40
2018-07-27T05:04:31.679Z,18.40
2018-07-27T05:07:00.253Z,18.47
2018-07-27T05:09:29.852Z,16.13
2018-07-27T05:11:58.470Z,16.57
2018-07-27T05:14:27.198Z,16.27
2018-07-27T05:16:55.844Z,15.43
2018-07-27T05:19:24.408Z,15.70
2018-07-27T05:21:53.002Z,15.60
2018-07-27T05:24:21.739Z,15.77
2018-07-27T05:26:50.349Z,15.53
2018-07-27T05:29:18.978Z,15.97
2018-07-27T05:31:47.613Z,15.00
2018-07-27T05:34:16.296Z,15.37
2018-07-27T05:36:45.059Z,14.63
2018-07-27T05:39:13.678Z,14.10
2018-07-27T05:41:42.306Z,14.80
2018-07-27T05:44:10.895Z,15.00
2018-07-27T05:46:39.598Z,13.43
2018-07-27T05:49:08.362Z,12.60
2018-07-27T05:51:36.930Z,13.13
2018-07-27T05:54:05.692Z,12.43
2018-07-27T05:56:34.584Z,11.77
2018-07-27T05:59:03.503Z,12.17
2018-07-27T06:01:32.212Z,10.97
2018-07-27T06:04:00.852Z,11.63
2018-07-27T06:06:29.484Z,10.53
2018-07-27T06:08:58.748Z,10.37
2018-07-27T06:11:27.420Z,10.33
2018-07-27T06:13:56.080Z,10.00
2018-07-27T06:16:24.679Z,9.10
2018-07-27T06:18:53.934Z,8.97
2018-07-27T06:21:22.702Z,8.60
2018-07-27T06:23:51.301Z,8.27
2018-07-27T06:26:19.950Z,8.23
2018-07-27T06:28:48.590Z,8.07
2018-07-27T06:31:17.268Z,7.97
2018-07-27T06:33:45.914Z,7.60
2018-07-27T06:36:14.483Z,7.30
2018-07-27T06:38:43.074Z,7.47
2018-07-27T06:41:11.739Z,7.47
2018-07-27T06:43:40.503Z,6.77
2018-07-27T06:46:09.107Z,6.40
2018-07-27T06:48:37.786Z,6.03
2018-07-27T06:51:06.511Z,6.37
2018-07-27T06:53:35.229Z,6.07
2018-07-27T06:56:04.189Z,5.80
2018-07-27T06:58:32.767Z,6.20
2018-07-27T07:01:01.344Z,5.67
2018-07-27T07:03:30.020Z,6.00
2018-07-27T07:05:58.920Z,5.40
2018-07-27T07:08:27.596Z,6.17
2018-07-27T07:10:56.224Z,5.73
2018-07-27T07:13:25.806Z,5.80
2018-07-27T07:15:54.428Z,5.50
2018-07-27T07:18:22.764Z,5.67
2018-07-27T07:20:51.390Z,5.87
2018-07-27T07:23:19.938Z,5.00
2018-07-27T07:25:48.815Z,5.17
2018-07-27T07:28:17.318Z,5.70
2018-07-27T07:30:46.070Z,5.30
2018-07-27T07:33:14.742Z,5.00
2018-07-27T07:35:43.509Z,4.67
2018-07-27T07:38:12.315Z,4.90
2018-07-27T07:40:41.115Z,4.17
2018-07-27T07:43:10.022Z,4.03
2018-07-27T07:45:38.593Z,4.00
2018-07-27T07:48:07.767Z,4.37
2018-07-27T07:50:37.149Z,3.63
2018-07-27T07:53:06.327Z,4.37
2018-07-27T07:55:34.899Z,3.90
2018-07-27T07:58:03.561Z,3.87
2018-07-27T08:00:32.409Z,4.27
2018-07-27T08:03:01.055Z,4.30
2018-07-27T08:05:29.491Z,3.90
2018-07-27T08:07:58.305Z,3.87
2018-07-27T08:10:27.155Z,3.77
2018-07-27T08:12:55.943Z,3.70
2018-07-27T08:15:25.043Z,3.50
2018-07-27T08:17:53.762Z,3.37
2018-07-27T08:20:22.343Z,3.63
2018-07-27T08:22:50.954Z,3.37
2018-07-27T08:25:19.273Z,3.30
2018-07-27T08:27:57.168Z,2.93
2018-07-27T08:30:25.905Z,3.33
2018-07-27T08:32:55.172Z,3.17
2018-07-27T08:35:23.758Z,3.20
2018-07-27T08:37:52.801Z,3.30
2018-07-27T08:40:21.411Z,3.00
2018-07-27T08:42:50.004Z,3.30
2018-07-27T08:45:18.571Z,3.00
2018-07-27T08:47:47.131Z,3.10
2018-07-27T08:50:15.672Z,3.25
2018-07-27T08:52:44.525Z,2.90
2018-07-27T08:55:13.146Z,3.58
2018-07-27T08:57:41.835Z,3.30
2018-07-27T09:00:10.512Z,3.30
2018-07-27T09:02:39.128Z,3.30
2018-07-27T09:05:07.814Z,3.33
2018-07-27T09:07:36.357Z,3.00
2018-07-27T09:10:05.274Z,3.05
2018-07-27T09:12:34.000Z,3.40
2018-07-27T09:15:02.896Z,3.20
2018-07-27T09:17:31.524Z,3.20
2018-07-27T09:20:00.140Z,3.17
2018-07-27T09:22:28.717Z,3.10
2018-07-27T09:24:57.444Z,3.10
2018-07-27T09:27:25.979Z,3.00
2018-07-27T09:29:54.721Z,3.37
2018-07-27T09:32:23.430Z,3.10
2018-07-27T09:34:52.141Z,3.05
2018-07-27T09:37:22.401Z,3.30
2018-07-27T09:39:51.073Z,3.15
2018-07-27T09:42:19.819Z,3.30
2018-07-27T09:44:48.527Z,3.05
2018-07-27T09:47:17.131Z,3.15
2018-07-27T09:49:45.739Z,3.58
2018-07-27T09:52:15.186Z,3.30
2018-07-27T09:54:43.923Z,3.05
2018-07-27T09:57:12.500Z,3.70
2018-07-27T09:59:41.261Z,2.98
2018-07-27T10:02:09.995Z,3.47
2018-07-27T10:04:38.612Z,3.20
2018-07-27T10:07:07.643Z,3.25
2018-07-27T10:09:36.382Z,2.90
2018-07-27T10:12:05.122Z,2.83
2018-07-27T10:14:34.383Z,2.87
2018-07-27T10:17:03.003Z,2.90
2018-07-27T10:19:31.624Z,3.00
2018-07-27T10:22:01.255Z,2.80
2018-07-27T10:24:29.854Z,2.70
2018-07-27T10:26:58.542Z,2.70
2018-07-27T10:29:27.448Z,3.27
2018-07-27T10:31:56.645Z,3.15
2018-07-27T10:34:27.678Z,2.90
2018-07-27T10:36:56.745Z,3.00
2018-07-27T10:39:25.382Z,2.70
2018-07-27T10:41:54.074Z,2.70
2018-07-27T10:44:22.923Z,2.67
2018-07-27T10:46:51.685Z,2.70
2018-07-27T10:49:20.292Z,3.00
2018-07-27T10:51:48.917Z,2.90
2018-07-27T10:54:17.559Z,3.00
2018-07-27T10:56:48.395Z,2.60
2018-07-27T10:59:18.024Z,2.75
2018-07-27T11:01:47.643Z,2.80
2018-07-27T11:04:16.462Z,2.80
2018-07-27T11:06:45.406Z,2.60
2018-07-27T11:09:14.131Z,2.70
2018-07-27T11:11:42.811Z,2.85
2018-07-27T11:14:11.382Z,2.90
2018-07-27T11:16:40.019Z,2.70
2018-07-27T11:19:08.982Z,2.80
2018-07-27T11:21:37.721Z,2.72
2018-07-27T11:24:06.352Z,2.70
2018-07-27T11:26:35.297Z,2.72
2018-07-27T11:29:03.871Z,2.60
2018-07-27T11:31:32.541Z,3.17
2018-07-27T11:34:01.192Z,3.05
2018-07-27T11:36:29.822Z,3.00
2018-07-27T11:38:58.443Z,3.00
2018-07-27T11:41:27.079Z,3.00
2018-07-27T11:43:55.756Z,3.22
2018-07-27T11:46:24.416Z,3.10
2018-07-27T11:48:53.564Z,3.10
2018-07-27T11:51:22.779Z,3.12
2018-07-27T11:53:51.391Z,3.17
2018-07-27T11:56:20.188Z,3.58
2018-07-27T11:58:48.876Z,2.85
2018-07-27T12:01:17.518Z,3.05
2018-07-27T12:03:46.175Z,2.98
2018-07-27T12:06:14.922Z,3.00
2018-07-27T12:08:44.715Z,2.90
2018-07-27T12:11:13.682Z,3.05
2018-07-27T12:13:42.520Z,3.15
2018-07-27T12:16:11.276Z,3.20
2018-07-27T12:18:39.991Z,3.25
2018-07-27T12:21:09.781Z,3.17
2018-07-27T12:23:38.378Z,3.00
2018-07-27T12:26:06.989Z,2.85
2018-07-27T12:28:35.529Z,3.20
2018-07-27T12:31:04.265Z,3.10
2018-07-27T12:33:33.026Z,3.22
2018-07-27T12:36:01.671Z,3.42
2018-07-27T12:38:30.290Z,3.00
2018-07-27T12:40:59.806Z,3.12
2018-07-27T12:43:28.417Z,3.15
2018-07-27T12:45:57.257Z,2.95
2018-07-27T12:48:26.389Z,3.00
2018-07-27T12:50:55.893Z,3.15
2018-07-27T12:53:24.526Z,3.00
2018-07-27T12:55:54.329Z,2.98
2018-07-27T12:58:22.737Z,2.90
2018-07-27T13:00:51.377Z,3.00
2018-07-27T13:03:20.106Z,3.05
2018-07-27T13:05:48.852Z,3.05
2018-07-27T13:08:17.510Z,3.25
2018-07-27T13:10:46.139Z,3.10
2018-07-27T13:13:14.686Z,3.10
2018-07-27T13:15:43.281Z,2.90
2018-07-27T13:18:12.787Z,2.80
2018-07-27T13:20:57.008Z,2.75
2018-07-27T13:23:25.867Z,2.60
2018-07-27T13:26:27.867Z,2.50
2018-07-27T13:28:41.979Z,2.50
2018-07-27T13:31:11.437Z,2.12
2018-07-27T13:33:46.804Z,2.90
2018-07-27T13:36:15.399Z,2.10
2018-07-27T13:38:44.255Z,2.00
2018-07-27T13:41:12.917Z,2.00
2018-07-27T13:43:41.612Z,2.20
2018-07-27T13:46:10.245Z,1.80
2018-07-27T13:48:38.842Z,2.10
2018-07-27T13:51:07.453Z,2.00
2018-07-27T13:53:36.061Z,2.15
2018-07-27T13:56:04.836Z,2.00
2018-07-27T13:58:33.550Z,2.00
2018-07-27T14:01:02.482Z,2.12
2018-07-27T14:03:31.166Z,2.12
2018-07-27T14:05:59.926Z,2.08
2018-07-27T14:08:28.589Z,2.15
2018-07-27T14:10:57.342Z,2.30
2018-07-27T14:13:26.006Z,2.02
2018-07-27T14:15:54.584Z,2.20
2018-07-27T14:18:23.169Z,2.10
2018-07-27T14:20:51.818Z,2.10
2018-07-27T14:23:20.614Z,1.82
2018-07-27T14:25:49.265Z,1.95
2018-07-27T14:28:17.920Z,1.95
2018-07-27T14:30:46.732Z,1.90
2018-07-27T14:33:15.329Z,2.02
2018-07-27T14:35:43.949Z,2.30
2018-07-27T14:38:12.621Z,1.92
2018-07-27T14:40:41.221Z,2.12
2018-07-27T14:43:09.780Z,2.30
2018-07-27T14:45:38.501Z,2.20
2018-07-27T14:48:07.135Z,2.30
2018-07-27T14:50:35.783Z,2.20
2018-07-27T14:53:04.497Z,2.33
2018-07-27T14:55:33.065Z,2.20
2018-07-27T14:58:01.690Z,2.30
2018-07-27T15:00:30.339Z,2.12
2018-07-27T15:02:58.941Z,2.00
2018-07-27T15:05:27.597Z,2.20
2018-07-27T15:07:56.401Z,2.30
2018-07-27T15:10:25.088Z,2.52
2018-07-27T15:12:56.766Z,2.22
2018-07-27T15:15:25.353Z,2.05
2018-07-27T15:17:54.034Z,2.10
2018-07-27T15:20:22.676Z,1.90
2018-07-27T15:22:51.356Z,2.30
2018-07-27T15:25:19.935Z,2.22
2018-07-27T15:27:48.553Z,2.30
2018-07-27T15:30:17.237Z,2.02
2018-07-27T15:32:45.829Z,2.00
2018-07-27T15:35:14.446Z,2.10
2018-07-27T15:37:43.097Z,2.95
2018-07-27T15:40:11.759Z,5.28
2018-07-27T15:42:40.414Z,7.30
2018-07-27T15:45:09.055Z,7.53
2018-07-27T15:47:37.671Z,10.20
2018-07-27T15:50:06.715Z,9.35
2018-07-27T15:52:35.394Z,14.35
2018-07-27T15:55:04.118Z,12.45
2018-07-27T15:57:32.765Z,21.87
2018-07-27T16:00:01.474Z,25.60
2018-07-27T16:02:30.055Z,22.65
2018-07-27T16:04:58.677Z,33.10
2018-07-27T16:07:27.536Z,30.52
2018-07-27T16:09:56.229Z,24.67
2018-07-27T16:12:25.078Z,28.83
2018-07-27T16:14:53.926Z,32.60
2018-07-27T16:17:22.222Z,24.63
2018-07-27T16:19:50.537Z,26.27
2018-07-27T16:22:19.213Z,23.63
2018-07-27T16:24:48.692Z,24.90
2018-07-27T16:27:17.485Z,26.17
2018-07-27T16:29:46.226Z,25.50
2018-07-27T16:32:14.939Z,31.97
2018-07-27T16:34:43.818Z,26.13
2018-07-27T16:37:12.462Z,29.97
2018-07-27T16:39:41.121Z,18.57
2018-07-27T16:42:09.707Z,14.97
2018-07-27T16:44:38.274Z,19.77
2018-07-27T16:47:06.882Z,24.17
2018-07-27T16:49:35.471Z,16.83
2018-07-27T16:52:04.234Z,18.53
2018-07-27T16:54:32.847Z,24.70
2018-07-27T16:57:01.726Z,17.83
2018-07-27T16:59:30.339Z,15.80
2018-07-27T17:02:00.775Z,19.63
2018-07-27T17:04:29.405Z,20.37
2018-07-27T17:06:59.009Z,17.03
2018-07-27T17:09:27.954Z,21.53
2018-07-27T17:11:56.867Z,16.90
2018-07-27T17:14:25.512Z,20.93
2018-07-27T17:16:54.111Z,20.83
2018-07-27T17:19:22.759Z,20.13
2018-07-27T17:21:51.387Z,15.87
2018-07-27T17:24:20.020Z,18.90
2018-07-27T17:26:48.560Z,14.30
2018-07-27T17:29:17.178Z,18.83
2018-07-27T17:31:46.460Z,24.73
2018-07-27T17:34:15.045Z,18.87
2018-07-27T17:36:43.759Z,16.63
2018-07-27T17:39:12.562Z,15.47
2018-07-27T17:41:41.256Z,17.77
2018-07-27T17:44:10.447Z,17.07
2018-07-27T17:46:39.182Z,15.27
2018-07-27T17:49:08.497Z,15.13
2018-07-27T17:51:37.145Z,17.00
2018-07-27T17:54:06.097Z,15.23
2018-07-27T17:56:34.680Z,12.50
2018-07-27T17:59:03.537Z,11.43
2018-07-27T18:01:32.322Z,12.50
2018-07-27T18:04:01.238Z,14.40
2018-07-27T18:06:29.821Z,12.00
2018-07-27T18:08:58.997Z,10.53
2018-07-27T18:11:28.979Z,9.80
2018-07-27T18:13:58.348Z,12.07
2018-07-27T18:16:27.124Z,10.40
2018-07-27T18:18:55.924Z,12.90
2018-07-27T18:21:24.592Z,10.67
2018-07-27T18:23:53.532Z,10.63
2018-07-27T18:26:22.184Z,10.67
2018-07-27T18:28:51.184Z,11.30
2018-07-27T18:31:23.252Z,10.87
2018-07-27T18:33:55.018Z,9.73
2018-07-27T18:36:23.864Z,9.80
2018-07-27T18:38:52.495Z,9.77
2018-07-27T18:41:21.116Z,9.77
2018-07-27T18:43:50.247Z,9.83
2018-07-27T18:46:18.847Z,9.93
2018-07-27T18:48:47.427Z,10.90
2018-07-27T18:51:16.098Z,10.10
2018-07-27T18:53:44.684Z,9.50
2018-07-27T18:56:13.304Z,8.63
2018-07-27T18:58:41.875Z,8.30
2018-07-27T19:01:10.903Z,7.50
2018-07-27T19:03:39.779Z,6.83
2018-07-27T19:06:08.958Z,7.23
2018-07-27T19:08:37.655Z,6.83
2018-07-27T19:11:06.677Z,6.97
2018-07-27T19:13:35.536Z,6.27
2018-07-27T19:16:03.776Z,5.50
2018-07-27T19:18:32.395Z,5.70
2018-07-27T19:21:01.039Z,5.13
2018-07-27T19:23:29.685Z,4.73
2018-07-27T19:25:58.687Z,4.70
2018-07-27T19:28:27.288Z,5.40
2018-07-27T19:30:55.957Z,4.80
2018-07-27T19:33:25.361Z,4.20
2018-07-27T19:35:54.216Z,4.50
2018-07-27T19:38:22.833Z,3.90
2018-07-27T19:40:51.389Z,4.10
2018-07-27T19:43:19.957Z,4.20
2018-07-27T19:45:48.593Z,4.10
2018-07-27T19:48:17.417Z,4.33
2018-07-27T19:50:46.061Z,4.30
2018-07-27T19:53:14.918Z,4.23
2018-07-27T19:55:43.484Z,4.10
2018-07-27T19:58:12.093Z,4.13
2018-07-27T20:00:40.931Z,4.30
2018-07-27T20:03:09.499Z,4.13
2018-07-27T20:05:38.426Z,3.93
2018-07-27T20:08:07.441Z,4.67
2018-07-27T20:10:36.679Z,4.40
2018-07-27T20:13:05.511Z,4.60
2018-07-27T20:15:34.185Z,4.20
2018-07-27T20:18:02.771Z,4.80
2018-07-27T20:20:31.482Z,4.67
2018-07-27T20:23:00.047Z,5.30
2018-07-27T20:25:31.525Z,5.57
2018-07-27T20:28:00.166Z,4.97
2018-07-27T20:30:28.953Z,5.60
2018-07-27T20:32:57.565Z,5.70
2018-07-27T20:35:26.330Z,5.33
2018-07-27T20:37:54.972Z,5.97
2018-07-27T20:40:24.338Z,5.03
2018-07-27T20:42:52.981Z,6.10
2018-07-27T20:45:21.560Z,6.07
2018-07-27T20:47:50.202Z,6.67
2018-07-27T20:50:18.785Z,6.50
2018-07-27T20:52:47.998Z,6.87
2018-07-27T20:55:16.630Z,7.37
2018-07-27T20:57:45.207Z,7.30
2018-07-27T21:00:14.513Z,6.57
2018-07-27T21:02:44.737Z,7.50
2018-07-27T21:05:14.663Z,7.27
2018-07-27T21:07:43.797Z,6.40
2018-07-27T21:10:13.591Z,6.30
2018-07-27T21:12:43.181Z,5.63
2018-07-27T21:15:11.745Z,5.80
2018-07-27T21:17:40.906Z,5.80
2018-07-27T21:20:10.053Z,6.10
2018-07-27T21:22:38.685Z,5.03
2018-07-27T21:25:07.510Z,5.60
2018-07-27T21:27:36.198Z,5.23
2018-07-27T21:30:05.091Z,5.20
2018-07-27T21:32:33.737Z,5.07
2018-07-27T21:35:02.375Z,5.00
2018-07-27T21:37:30.985Z,5.00
2018-07-27T21:39:59.628Z,4.40
2018-07-27T21:42:28.192Z,5.20
2018-07-27T21:44:57.309Z,4.43
2018-07-27T21:47:26.562Z,4.90
2018-07-27T21:49:54.804Z,4.90
2018-07-27T21:52:23.385Z,4.43
2018-07-27T21:54:52.198Z,4.70
2018-07-27T21:57:21.194Z,4.37
2018-07-27T21:59:50.067Z,4.50
2018-07-27T22:02:18.725Z,4.00
2018-07-27T22:04:47.508Z,3.83
2018-07-27T22:07:16.165Z,4.53
2018-07-27T22:09:44.794Z,4.20
2018-07-27T22:12:13.486Z,4.40
2018-07-27T22:14:42.958Z,4.63
2018-07-27T22:17:11.543Z,4.60
2018-07-27T22:19:40.274Z,4.40
2018-07-27T22:22:08.930Z,4.80
2018-07-27T22:24:37.579Z,4.67
2018-07-27T22:27:06.252Z,4.50
2018-07-27T22:29:34.924Z,4.47
2018-07-27T22:32:03.654Z,4.47
2018-07-27T22:34:32.281Z,4.50
2018-07-27T22:37:00.875Z,4.07
2018-07-27T22:39:29.624Z,4.20
2018-07-27T22:41:59.227Z,4.50
2018-07-27T22:44:27.433Z,4.80
2018-07-27T22:46:57.607Z,4.70
2018-07-27T22:49:26.694Z,4.60
2018-07-27T22:51:55.462Z,4.70
2018-07-27T22:54:24.097Z,5.10
2018-07-27T22:56:52.709Z,5.03
2018-07-27T22:59:21.347Z,4.90
2018-07-27T23:01:49.907Z,5.23
2018-07-27T23:04:18.747Z,4.60
2018-07-27T23:06:47.400Z,4.57
2018-07-27T23:09:16.020Z,4.47
2018-07-27T23:11:44.761Z,4.57
2018-07-27T23:14:13.603Z,4.70
2018-07-27T23:16:42.382Z,4.70
2018-07-27T23:19:11.036Z,4.60
2018-07-27T23:21:39.736Z,4.47
2018-07-27T23:24:08.553Z,4.50
2018-07-27T23:26:37.443Z,4.60
2018-07-27T23:29:06.080Z,4.22
2018-07-27T23:31:34.818Z,4.33
2018-07-27T23:34:03.657Z,3.97
2018-07-27T23:36:32.324Z,4.00
2018-07-27T23:39:01.252Z,4.70
2018-07-27T23:41:29.873Z,4.87
2018-07-27T23:43:58.503Z,5.10
2018-07-27T23:46:28.168Z,5.60
2018-07-27T23:48:56.977Z,5.57
2018-07-27T23:51:25.766Z,6.80
2018-07-27T23:53:54.531Z,6.87
2018-07-27T23:56:23.199Z,8.03
2018-07-27T23:58:52.285Z,7.93
